createdAt,value
2023-03-31T00:00:13.211Z,101912.00
2023-03-31T00:05:18.442Z,101909.34
2023-03-31T00:10:20.586Z,101903.09
2023-03-31T00:15:22.725Z,101895.22
2023-03-31T00:20:24.734Z,101878.28
2023-03-31T00:25:27.084Z,101877.31
2023-03-31T00:30:29.335Z,101880.09
2023-03-31T00:35:39.416Z,101880.94
2023-03-31T00:40:47.246Z,101864.19
2023-03-31T00:45:49.429Z,101841.25
2023-03-31T00:50:58.054Z,101820.03
2023-03-31T00:56:07.722Z,101802.22
2023-03-31T01:01:15.608Z,101789.94
2023-03-31T01:06:20.042Z,101787.38
2023-03-31T01:11:26.401Z,101774.13
2023-03-31T01:16:29.759Z,101768.72
2023-03-31T01:22:00.730Z,101761.72
2023-03-31T01:27:17.847Z,101757.25
2023-03-31T01:32:41.046Z,101735.28
2023-03-31T01:38:20.517Z,101756.50
2023-03-31T01:43:47.928Z,101738.00
2023-03-31T01:49:06.012Z,101745.88
2023-03-31T01:54:23.518Z,101743.22
2023-03-31T01:59:58.238Z,101751.97
2023-03-31T02:05:07.170Z,101744.09
2023-03-31T02:10:12.687Z,101729.13
2023-03-31T02:15:24.577Z,101707.06
2023-03-31T02:20:29.683Z,101707.81
2023-03-31T02:25:41.640Z,101713.03
2023-03-31T02:31:25.907Z,101709.69
2023-03-31T02:36:28.909Z,101701.66
2023-03-31T02:41:31.183Z,101707.81
2023-03-31T02:46:33.655Z,101687.47
2023-03-31T02:51:36.384Z,101688.41
2023-03-31T02:56:59.663Z,101703.47
2023-03-31T03:02:31.446Z,101690.19
2023-03-31T03:07:45.914Z,101675.31
2023-03-31T03:12:50.637Z,101670.88
2023-03-31T03:17:53.824Z,101678.75
2023-03-31T03:22:56.128Z,101678.66
2023-03-31T03:27:58.189Z,101669.94
2023-03-31T03:33:00.730Z,101662.91
2023-03-31T03:38:02.721Z,101669.06
2023-03-31T03:43:04.778Z,101649.66
2023-03-31T03:48:07.065Z,101651.59
2023-03-31T03:53:09.300Z,101652.44
2023-03-31T03:58:11.455Z,101657.81
2023-03-31T04:03:14.836Z,101657.75
2023-03-31T04:08:18.278Z,101669.94
2023-03-31T04:13:20.791Z,101668.22
2023-03-31T04:18:25.753Z,101670.13
2023-03-31T04:23:27.794Z,101672.78
2023-03-31T04:28:35.254Z,101664.84
2023-03-31T04:33:40.408Z,101679.81
2023-03-31T04:38:42.585Z,101691.22
2023-03-31T04:43:44.631Z,101692.22
2023-03-31T04:48:46.752Z,101707.34
2023-03-31T04:53:48.945Z,101709.13
2023-03-31T04:58:51.327Z,101713.50
2023-03-31T05:03:53.536Z,101712.66
2023-03-31T05:08:55.940Z,101715.31
2023-03-31T05:13:57.975Z,101708.97
2023-03-31T05:19:00.917Z,101714.28
2023-03-31T05:24:03.222Z,101715.09
2023-03-31T05:29:05.798Z,101723.16
2023-03-31T05:34:08.141Z,101722.31
2023-03-31T05:39:10.945Z,101702.34
2023-03-31T05:44:13.318Z,101722.09
2023-03-31T05:49:17.249Z,101716.94
2023-03-31T05:54:19.463Z,101711.72
2023-03-31T05:59:21.580Z,101719.66
2023-03-31T06:04:24.716Z,101725.69
2023-03-31T06:09:28.632Z,101709.78
2023-03-31T06:14:30.467Z,101701.09
2023-03-31T06:19:32.576Z,101713.22
2023-03-31T06:24:34.750Z,101715.78
2023-03-31T06:29:36.955Z,101709.63
2023-03-31T06:34:39.037Z,101707.91
2023-03-31T06:39:41.134Z,101723.91
2023-03-31T06:44:43.225Z,101722.03
2023-03-31T06:49:45.412Z,101716.81
2023-03-31T06:54:47.502Z,101701.75
2023-03-31T06:59:49.598Z,101696.44
2023-03-31T07:04:51.660Z,101708.75
2023-03-31T07:09:56.377Z,101692.84
2023-03-31T07:14:58.500Z,101694.56
2023-03-31T07:20:00.562Z,101698.81
2023-03-31T07:25:02.620Z,101707.63
2023-03-31T07:30:10.148Z,101698.06
2023-03-31T07:35:12.154Z,101698.94
2023-03-31T07:40:18.423Z,101711.25
2023-03-31T07:45:22.421Z,101717.38
2023-03-31T07:50:25.206Z,101728.84
2023-03-31T07:55:29.973Z,101752.59
2023-03-31T08:00:32.409Z,101739.34
2023-03-31T08:05:35.162Z,101744.75
2023-03-31T08:10:37.508Z,101757.06
2023-03-31T08:15:39.956Z,101747.31
2023-03-31T08:20:42.043Z,101769.28
2023-03-31T08:25:44.029Z,101775.44
2023-03-31T08:30:46.546Z,101771.84
2023-03-31T08:35:48.646Z,101768.34
2023-03-31T08:40:50.767Z,101790.41
2023-03-31T08:45:55.995Z,101788.59
2023-03-31T08:51:14.544Z,101795.72
2023-03-31T08:56:20.976Z,101808.88
2023-03-31T09:01:35.883Z,101815.13
2023-03-31T09:07:14.336Z,101825.63
2023-03-31T09:12:57.883Z,101839.66
2023-03-31T09:18:20.009Z,101834.38
2023-03-31T09:23:39.763Z,101856.59
2023-03-31T09:28:43.113Z,101826.31
2023-03-31T09:33:46.998Z,101808.63
2023-03-31T09:38:48.933Z,101814.00
2023-03-31T09:43:52.065Z,101806.03
2023-03-31T09:49:11.754Z,101819.22
2023-03-31T09:54:18.970Z,101821.75
2023-03-31T09:59:24.167Z,101806.78
2023-03-31T10:04:30.225Z,101825.25
2023-03-31T10:09:34.524Z,101821.59
2023-03-31T10:14:50.118Z,101840.06
2023-03-31T10:20:06.556Z,101843.53
2023-03-31T10:25:23.430Z,101845.38
2023-03-31T10:30:38.176Z,101824.97
2023-03-31T10:35:41.070Z,101832.84
2023-03-31T10:40:55.261Z,101833.78
2023-03-31T10:46:00.787Z,101814.19
2023-03-31T10:51:15.026Z,101827.38
2023-03-31T10:56:49.392Z,101828.22
2023-03-31T11:01:55.956Z,101833.41
2023-03-31T11:07:17.779Z,101836.06
2023-03-31T11:12:19.618Z,101828.88
2023-03-31T11:17:33.426Z,101837.69
2023-03-31T11:22:43.620Z,101823.56
2023-03-31T11:28:03.880Z,101833.34
2023-03-31T11:33:29.993Z,101825.28
2023-03-31T11:39:00.333Z,101825.19
2023-03-31T11:44:09.762Z,101823.28
2023-03-31T11:49:30.413Z,101821.59
2023-03-31T11:54:45.714Z,101808.25
2023-03-31T11:59:56.321Z,101802.06
2023-03-31T12:04:58.769Z,101814.41
2023-03-31T12:10:06.108Z,101816.03
2023-03-31T12:15:25.610Z,101814.34
2023-03-31T12:20:32.879Z,101825.81
2023-03-31T12:25:49.634Z,101843.59
2023-03-31T12:30:53.721Z,101830.16
2023-03-31T12:36:24.495Z,101817.94
2023-03-31T12:41:45.151Z,101801.84
2023-03-31T12:46:55.805Z,101791.31
2023-03-31T12:52:00.748Z,101785.91
2023-03-31T12:57:14.309Z,101776.16
2023-03-31T13:02:16.459Z,101769.03
2023-03-31T13:07:29.104Z,101756.72
2023-03-31T13:12:33.354Z,101742.50
2023-03-31T13:17:39.055Z,101746.75
2023-03-31T13:22:44.490Z,101749.31
2023-03-31T13:27:50.284Z,101740.44
2023-03-31T13:33:05.860Z,101737.94
2023-03-31T13:38:45.149Z,101733.41
2023-03-31T13:44:13.467Z,101711.41
2023-03-31T13:49:54.322Z,101714.91
2023-03-31T13:55:06.860Z,101716.53
2023-03-31T14:00:30.480Z,101704.31
2023-03-31T14:05:43.727Z,101698.91
2023-03-31T14:10:45.931Z,101712.91
2023-03-31T14:15:51.958Z,101691.81
2023-03-31T14:21:40.907Z,101713.88
2023-03-31T14:27:04.488Z,101699.75
2023-03-31T14:32:29.344Z,101688.22
2023-03-31T14:37:32.225Z,101671.22
2023-03-31T14:42:39.892Z,101676.53
2023-03-31T14:47:41.944Z,101663.16
2023-03-31T14:52:48.742Z,101638.53
2023-03-31T14:57:52.584Z,101632.38
2023-03-31T15:02:55.076Z,101614.56
2023-03-31T15:07:59.198Z,101603.94
2023-03-31T15:13:08.080Z,101615.41
2023-03-31T15:18:13.940Z,101614.47
2023-03-31T15:23:25.098Z,101612.66
2023-03-31T15:28:32.566Z,101618.91
2023-03-31T15:33:36.911Z,101623.47
2023-03-31T15:38:39.248Z,101612.75
2023-03-31T15:43:53.023Z,101615.31
2023-03-31T15:48:56.314Z,101609.88
2023-03-31T15:53:58.515Z,101609.16
2023-03-31T15:59:05.594Z,101632.19
2023-03-31T16:04:10.671Z,101631.22
2023-03-31T16:09:24.640Z,101641.94
2023-03-31T16:14:31.563Z,101644.38
2023-03-31T16:19:45.504Z,101614.34
2023-03-31T16:24:48.564Z,101622.22
2023-03-31T16:29:50.952Z,101615.09
2023-03-31T16:34:53.925Z,101611.59
2023-03-31T16:39:56.975Z,101606.38
2023-03-31T16:45:12.741Z,101590.84
2023-03-31T16:50:16.820Z,101607.13
2023-03-31T16:55:18.928Z,101587.59
2023-03-31T17:00:21.185Z,101574.34
2023-03-31T17:05:23.690Z,101578.72
2023-03-31T17:10:25.924Z,101588.38
2023-03-31T17:15:29.898Z,101573.41
2023-03-31T17:20:31.957Z,101571.69
2023-03-31T17:25:36.316Z,101587.53
2023-03-31T17:30:39.793Z,101583.06
2023-03-31T17:35:43.244Z,101581.25
2023-03-31T17:40:45.789Z,101594.53
2023-03-31T17:45:48.075Z,101594.41
2023-03-31T17:50:50.296Z,101592.50
2023-03-31T17:55:52.372Z,101597.06
2023-03-31T18:00:54.528Z,101599.84
2023-03-31T18:05:57.043Z,101604.84
2023-03-31T18:10:59.465Z,101598.78
2023-03-31T18:16:01.641Z,101605.88
2023-03-31T18:21:08.966Z,101621.72
2023-03-31T18:26:13.290Z,101631.38
2023-03-31T18:31:15.705Z,101635.06
2023-03-31T18:36:19.699Z,101640.28
2023-03-31T18:41:23.269Z,101664.19
2023-03-31T18:46:25.800Z,101662.38
2023-03-31T18:51:28.089Z,101673.84
2023-03-31T18:56:30.181Z,101685.31
2023-03-31T19:01:40.424Z,101662.38
2023-03-31T19:06:42.587Z,101669.47
2023-03-31T19:11:44.698Z,101689.88
2023-03-31T19:16:47.038Z,101700.47
2023-03-31T19:21:49.668Z,101708.44
2023-03-31T19:26:51.771Z,101720.00
2023-03-31T19:31:54.060Z,101728.81
2023-03-31T19:36:56.819Z,101717.25
2023-03-31T19:41:58.781Z,101732.53
2023-03-31T19:47:00.888Z,101751.00
2023-03-31T19:52:04.086Z,101758.97
2023-03-31T19:57:06.813Z,101777.44
2023-03-31T20:02:12.939Z,101791.50
2023-03-31T20:07:15.075Z,101795.09
2023-03-31T20:12:17.270Z,101788.16
2023-03-31T20:17:19.547Z,101782.66
2023-03-31T20:22:21.939Z,101791.56
2023-03-31T20:27:26.598Z,101797.75
2023-03-31T20:32:28.835Z,101807.41
2023-03-31T20:37:30.924Z,101804.00
2023-03-31T20:42:32.932Z,101801.34
2023-03-31T20:47:35.579Z,101804.00
2023-03-31T20:52:37.844Z,101815.47
2023-03-31T20:57:40.356Z,101807.41
2023-03-31T21:02:43.204Z,101805.78
2023-03-31T21:07:45.664Z,101799.63
2023-03-31T21:12:47.728Z,101804.94
2023-03-31T21:17:49.800Z,101813.75
2023-03-31T21:22:51.827Z,101819.81
2023-03-31T21:27:54.098Z,101820.69
2023-03-31T21:32:56.239Z,101822.56
2023-03-31T21:37:58.456Z,101815.56
2023-03-31T21:43:00.951Z,101822.56
2023-03-31T21:48:04.467Z,101812.81
2023-03-31T21:53:09.457Z,101819.06
2023-03-31T21:58:13.033Z,101816.41
2023-03-31T22:03:26.459Z,101827.88
2023-03-31T22:08:31.740Z,101836.59
2023-03-31T22:13:34.618Z,101844.66
2023-03-31T22:18:36.694Z,101842.00
2023-03-31T22:23:38.744Z,101838.50
2023-03-31T22:28:40.812Z,101833.09
2023-03-31T22:33:42.829Z,101830.53
2023-03-31T22:38:44.997Z,101845.50
2023-03-31T22:43:47.229Z,101830.91
2023-03-31T22:48:50.525Z,101842.84
2023-03-31T22:53:54.184Z,101849.97
2023-03-31T22:58:57.678Z,101836.69
2023-03-31T23:04:00.963Z,101832.25
2023-03-31T23:09:03.152Z,101827.09
2023-03-31T23:14:05.281Z,101827.03
2023-03-31T23:19:07.758Z,101816.31
2023-03-31T23:24:10.985Z,101814.59
2023-03-31T23:29:13.457Z,101822.47
2023-03-31T23:34:15.764Z,101826.06
2023-03-31T23:39:17.797Z,101814.69
2023-03-31T23:44:19.994Z,101828.72
2023-03-31T23:49:22.406Z,101823.44
2023-03-31T23:54:24.618Z,101827.03
2023-03-31T23:59:26.626Z,101837.56
